createdAt,value
2018-02-18T00:00:06.944Z,72.23
2018-02-18T00:02:34.399Z,75.20
2018-02-18T00:05:01.831Z,73.90
2018-02-18T00:07:29.301Z,92.27
2018-02-18T00:09:57.496Z,105.50
2018-02-18T00:12:24.940Z,87.40
2018-02-18T00:14:56.345Z,74.40
2018-02-18T00:17:24.544Z,61.10
2018-02-18T00:19:51.985Z,104.83
2018-02-18T00:22:20.196Z,76.87
2018-02-18T00:24:47.623Z,79.97
2018-02-18T00:27:15.836Z,102.97
2018-02-18T00:29:43.298Z,69.70
2018-02-18T00:32:10.720Z,84.70
2018-02-18T00:34:38.156Z,87.40
2018-02-18T00:37:06.373Z,87.43
2018-02-18T00:39:33.796Z,73.07
2018-02-18T00:42:01.988Z,68.10
2018-02-18T00:44:29.476Z,73.40
2018-02-18T00:46:56.905Z,86.73
2018-02-18T00:49:24.388Z,86.30
2018-02-18T00:51:51.830Z,73.30
2018-02-18T00:54:19.300Z,73.13
2018-02-18T00:56:46.729Z,89.07
2018-02-18T00:59:14.174Z,81.87
2018-02-18T01:01:42.365Z,80.90
2018-02-18T01:04:09.797Z,81.53
2018-02-18T01:06:38.014Z,80.73
2018-02-18T01:09:05.452Z,74.70
2018-02-18T01:11:32.929Z,72.53
2018-02-18T01:14:00.398Z,77.57
2018-02-18T01:16:27.848Z,69.93
2018-02-18T01:18:55.304Z,81.83
2018-02-18T01:21:22.764Z,78.07
2018-02-18T01:23:50.209Z,89.00
2018-02-18T01:26:17.636Z,83.83
2018-02-18T01:28:45.101Z,84.40
2018-02-18T01:31:12.589Z,78.53
2018-02-18T01:33:40.042Z,83.17
2018-02-18T01:36:07.495Z,86.10
2018-02-18T01:38:34.952Z,84.13
2018-02-18T01:41:02.380Z,88.07
2018-02-18T01:43:30.693Z,84.40
2018-02-18T01:45:58.120Z,74.43
2018-02-18T01:48:25.552Z,87.90
2018-02-18T01:50:53.770Z,76.17
2018-02-18T01:53:21.200Z,79.63
2018-02-18T01:55:49.401Z,77.37
2018-02-18T01:58:16.833Z,81.20
2018-02-18T02:00:44.325Z,72.13
2018-02-18T02:03:11.756Z,79.60
2018-02-18T02:05:39.193Z,85.23
2018-02-18T02:08:07.436Z,86.67
2018-02-18T02:10:34.984Z,87.30
2018-02-18T02:13:02.532Z,78.00
2018-02-18T02:15:29.973Z,75.23
2018-02-18T02:17:57.400Z,71.67
2018-02-18T02:20:25.623Z,71.83
2018-02-18T02:22:53.042Z,81.30
2018-02-18T02:25:21.259Z,91.67
2018-02-18T02:27:48.719Z,78.10
2018-02-18T02:30:16.170Z,79.10
2018-02-18T02:32:43.641Z,75.43
2018-02-18T02:35:11.082Z,80.40
2018-02-18T02:37:38.525Z,85.97
2018-02-18T02:40:05.948Z,86.57
2018-02-18T02:42:34.218Z,91.77
2018-02-18T02:45:01.630Z,90.63
2018-02-18T02:47:29.088Z,80.67
2018-02-18T02:49:56.545Z,97.07
2018-02-18T02:52:23.981Z,79.50
2018-02-18T02:54:51.412Z,90.93
2018-02-18T02:57:19.624Z,104.83
2018-02-18T02:59:47.098Z,91.13
2018-02-18T03:02:14.557Z,80.93
2018-02-18T03:04:41.995Z,79.53
2018-02-18T03:07:09.420Z,75.57
2018-02-18T03:09:37.628Z,77.47
2018-02-18T03:12:05.100Z,85.87
2018-02-18T03:14:32.550Z,71.97
2018-02-18T03:17:00.016Z,79.37
2018-02-18T03:19:27.570Z,89.87
2018-02-18T03:21:55.028Z,95.47
2018-02-18T03:24:22.460Z,86.37
2018-02-18T03:26:49.892Z,81.33
2018-02-18T03:29:18.117Z,76.13
2018-02-18T03:31:45.581Z,82.80
2018-02-18T03:34:13.129Z,79.83
2018-02-18T03:36:40.560Z,88.93
2018-02-18T03:39:07.986Z,81.10
2018-02-18T03:41:36.224Z,81.27
2018-02-18T03:44:03.677Z,81.03
2018-02-18T03:46:31.119Z,72.30
2018-02-18T03:48:58.561Z,77.50
2018-02-18T03:51:25.997Z,80.30
2018-02-18T03:53:54.200Z,83.97
2018-02-18T03:56:21.667Z,86.63
2018-02-18T03:58:49.092Z,78.93
2018-02-18T04:01:17.304Z,79.70
2018-02-18T04:03:44.769Z,80.33
2018-02-18T04:06:12.221Z,84.97
2018-02-18T04:08:39.658Z,90.50
2018-02-18T04:11:07.101Z,87.23
2018-02-18T04:13:34.556Z,83.00
2018-02-18T04:16:02.755Z,82.77
2018-02-18T04:18:30.205Z,88.00
2018-02-18T04:20:57.628Z,85.20
2018-02-18T04:23:25.852Z,84.83
2018-02-18T04:25:53.285Z,82.60
2018-02-18T04:28:20.724Z,78.47
2018-02-18T04:30:48.918Z,87.00
2018-02-18T04:33:16.373Z,74.33
2018-02-18T04:35:43.807Z,71.13
2018-02-18T04:38:12.028Z,75.97
2018-02-18T04:40:39.481Z,66.50
2018-02-18T04:43:06.940Z,71.43
2018-02-18T04:45:34.377Z,74.83
2018-02-18T04:48:01.866Z,72.90
2018-02-18T04:50:29.316Z,67.53
2018-02-18T04:52:56.776Z,67.87
2018-02-18T04:55:24.217Z,75.93
2018-02-18T04:57:51.702Z,68.10
2018-02-18T05:00:19.243Z,65.47
2018-02-18T05:02:46.708Z,71.97
2018-02-18T05:05:14.155Z,62.73
2018-02-18T05:07:41.572Z,68.20
2018-02-18T05:10:09.792Z,67.10
2018-02-18T05:12:37.228Z,80.10
2018-02-18T05:15:04.707Z,66.77
2018-02-18T05:17:32.168Z,61.60
2018-02-18T05:19:59.596Z,64.90
2018-02-18T05:22:27.035Z,66.43
2018-02-18T05:24:55.242Z,63.23
2018-02-18T05:27:22.676Z,62.87
2018-02-18T05:29:50.116Z,67.10
2018-02-18T05:32:18.316Z,61.47
2018-02-18T05:34:45.798Z,67.03
2018-02-18T05:37:13.239Z,57.63
2018-02-18T05:39:40.716Z,68.67
2018-02-18T05:42:08.172Z,67.33
2018-02-18T05:44:35.596Z,66.87
2018-02-18T05:47:03.098Z,61.13
2018-02-18T05:49:30.530Z,67.67
2018-02-18T05:51:58.000Z,78.47
2018-02-18T05:54:25.432Z,57.90
2018-02-18T05:56:52.916Z,68.40
2018-02-18T05:59:20.348Z,59.23
2018-02-18T06:01:47.804Z,63.30
2018-02-18T06:04:15.234Z,63.97
2018-02-18T06:06:43.443Z,68.70
2018-02-18T06:09:10.885Z,57.27
2018-02-18T06:11:38.371Z,71.33
2018-02-18T06:14:05.808Z,69.87
2018-02-18T06:16:33.284Z,70.30
2018-02-18T06:19:00.717Z,70.23
2018-02-18T06:21:28.149Z,60.60
2018-02-18T06:23:56.365Z,57.80
2018-02-18T06:26:23.800Z,63.47
2018-02-18T06:28:51.293Z,67.90
2018-02-18T06:31:18.748Z,58.17
2018-02-18T06:33:46.185Z,62.20
2018-02-18T06:36:13.616Z,64.90
2018-02-18T06:38:41.836Z,70.80
2018-02-18T06:41:09.264Z,56.80
2018-02-18T06:43:36.704Z,57.23
2018-02-18T06:46:04.932Z,60.70
2018-02-18T06:48:32.419Z,60.00
2018-02-18T06:50:59.836Z,64.20
2018-02-18T06:53:27.284Z,56.70
2018-02-18T06:55:54.807Z,60.77
2018-02-18T06:58:22.208Z,60.83
2018-02-18T07:00:49.658Z,52.97
2018-02-18T07:03:17.124Z,54.07
2018-02-18T07:05:44.552Z,58.10
2018-02-18T07:08:12.064Z,59.47
2018-02-18T07:10:39.461Z,61.87
2018-02-18T07:13:06.896Z,62.00
2018-02-18T07:15:34.333Z,51.90
2018-02-18T07:18:01.761Z,64.67
2018-02-18T07:20:29.229Z,49.57
2018-02-18T07:22:56.798Z,58.70
2018-02-18T07:25:24.240Z,50.70
2018-02-18T07:27:51.699Z,55.90
2018-02-18T07:30:19.318Z,56.93
2018-02-18T07:32:47.540Z,61.97
2018-02-18T07:35:14.977Z,52.03
2018-02-18T07:37:42.416Z,54.33
2018-02-18T07:40:09.856Z,53.93
2018-02-18T07:42:38.052Z,53.67
2018-02-18T07:45:05.489Z,51.43
2018-02-18T07:47:33.705Z,56.30
2018-02-18T07:50:01.176Z,56.50
2018-02-18T07:52:28.611Z,57.13
2018-02-18T07:54:56.078Z,53.10
2018-02-18T07:57:23.536Z,52.80
2018-02-18T07:59:50.992Z,51.60
2018-02-18T08:02:18.448Z,48.63
2018-02-18T08:04:45.884Z,50.20
2018-02-18T08:07:13.365Z,48.50
2018-02-18T08:09:40.797Z,47.27
2018-02-18T08:12:08.300Z,50.07
2018-02-18T08:14:35.844Z,51.83
2018-02-18T08:17:03.304Z,59.67
2018-02-18T08:19:30.756Z,46.10
2018-02-18T08:21:58.313Z,46.43
2018-02-18T08:24:25.757Z,48.23
2018-02-18T08:26:53.219Z,52.17
2018-02-18T08:29:20.680Z,54.97
2018-02-18T08:31:48.109Z,44.73
2018-02-18T08:41:02.521Z,48.67
2018-02-18T08:43:29.950Z,44.07
2018-02-18T08:45:58.173Z,44.60
2018-02-18T08:48:25.646Z,51.47
2018-02-18T08:50:53.084Z,40.93
2018-02-18T08:53:20.517Z,45.97
2018-02-18T08:55:47.969Z,53.53
2018-02-18T08:58:15.410Z,45.23
2018-02-18T09:00:43.601Z,45.23
2018-02-18T09:03:11.074Z,44.63
2018-02-18T09:05:39.234Z,52.93
2018-02-18T09:08:06.713Z,46.80
2018-02-18T09:10:34.230Z,43.70
2018-02-18T09:13:01.736Z,42.07
2018-02-18T09:15:29.171Z,46.63
2018-02-18T09:17:56.612Z,43.77
2018-02-18T09:20:24.173Z,49.53
2018-02-18T09:22:52.369Z,37.70
2018-02-18T09:25:19.812Z,46.83
2018-02-18T09:27:47.244Z,40.03
2018-02-18T09:30:15.441Z,43.33
2018-02-18T09:32:42.885Z,53.13
2018-02-18T09:35:11.081Z,47.30
2018-02-18T09:37:38.511Z,50.37
2018-02-18T09:40:06.763Z,50.10
2018-02-18T09:42:34.232Z,47.17
2018-02-18T09:45:01.757Z,47.20
2018-02-18T09:47:29.308Z,49.10
2018-02-18T09:49:56.737Z,48.73
2018-02-18T09:52:24.221Z,44.00
2018-02-18T09:54:51.667Z,51.70
2018-02-18T09:57:19.094Z,52.97
2018-02-18T09:59:47.288Z,48.63
2018-02-18T10:02:14.747Z,53.53
2018-02-18T10:04:42.226Z,49.33
2018-02-18T10:07:09.685Z,49.13
2018-02-18T10:09:37.133Z,44.70
2018-02-18T10:12:04.605Z,47.70
2018-02-18T10:14:32.033Z,49.07
2018-02-18T10:16:59.472Z,45.87
2018-02-18T10:19:27.665Z,51.90
2018-02-18T10:21:55.140Z,46.13
2018-02-18T10:24:22.592Z,47.97
2018-02-18T10:26:50.021Z,44.60
2018-02-18T10:29:18.221Z,45.73
2018-02-18T10:31:45.661Z,45.53
2018-02-18T10:34:13.164Z,47.27
2018-02-18T10:36:40.594Z,50.27
2018-02-18T10:39:08.033Z,57.10
2018-02-18T10:41:35.464Z,44.07
2018-02-18T10:44:02.888Z,43.80
2018-02-18T10:46:30.332Z,40.90
2018-02-18T10:48:57.765Z,42.80
2018-02-18T10:51:25.241Z,46.17
2018-02-18T10:53:52.696Z,50.43
2018-02-18T10:56:20.954Z,44.60
2018-02-18T10:58:48.428Z,53.60
2018-02-18T11:01:15.877Z,51.70
2018-02-18T11:03:43.338Z,57.50
2018-02-18T11:06:10.773Z,47.20
2018-02-18T11:08:38.988Z,50.03
2018-02-18T11:11:06.427Z,44.77
2018-02-18T11:13:33.853Z,47.77
2018-02-18T11:16:02.065Z,51.23
2018-02-18T11:18:29.561Z,54.73
2018-02-18T11:20:57.000Z,52.50
2018-02-18T11:23:24.482Z,51.13
2018-02-18T11:25:51.873Z,51.23
2018-02-18T11:28:19.361Z,55.03
2018-02-18T11:30:46.832Z,56.40
2018-02-18T11:33:14.368Z,52.17
2018-02-18T11:35:41.805Z,49.50
2018-02-18T11:38:09.240Z,52.80
2018-02-18T11:40:37.465Z,48.13
2018-02-18T11:43:04.913Z,53.00
2018-02-18T11:45:32.348Z,51.30
2018-02-18T11:47:59.789Z,59.13
2018-02-18T11:50:27.988Z,50.33
2018-02-18T11:52:55.408Z,52.13
2018-02-18T11:55:23.639Z,57.27
2018-02-18T11:57:51.085Z,53.57
2018-02-18T12:00:18.528Z,55.53
2018-02-18T12:02:46.008Z,50.40
2018-02-18T12:05:13.430Z,60.80
2018-02-18T12:07:40.881Z,58.83
2018-02-18T12:10:09.077Z,50.57
2018-02-18T12:12:36.556Z,54.27
2018-02-18T12:15:03.988Z,49.37
2018-02-18T12:17:31.465Z,57.17
2018-02-18T12:19:58.920Z,47.80
2018-02-18T12:22:26.357Z,55.83
2018-02-18T12:24:53.802Z,56.70
2018-02-18T12:27:22.053Z,54.83
2018-02-18T12:29:50.289Z,55.10
2018-02-18T12:32:17.720Z,50.90
2018-02-18T12:34:45.144Z,48.57
2018-02-18T12:37:12.660Z,50.53
2018-02-18T12:39:40.121Z,58.10
2018-02-18T12:42:07.566Z,62.77
2018-02-18T12:44:35.341Z,62.93
2018-02-18T12:47:03.481Z,55.73
2018-02-18T12:49:30.922Z,59.73
2018-02-18T12:51:59.167Z,53.20
2018-02-18T12:54:26.696Z,55.23
2018-02-18T12:56:54.187Z,64.87
2018-02-18T12:59:21.610Z,52.70
2018-02-18T13:01:49.045Z,58.00
2018-02-18T13:04:16.544Z,53.87
2018-02-18T13:06:44.096Z,54.53
2018-02-18T13:09:11.540Z,51.70
2018-02-18T13:11:38.981Z,57.33
2018-02-18T13:14:06.415Z,60.00
2018-02-18T13:16:34.679Z,54.23
2018-02-18T13:19:02.877Z,50.90
2018-02-18T13:21:31.112Z,52.83
2018-02-18T13:23:58.560Z,55.13
2018-02-18T13:26:25.991Z,55.07
2018-02-18T13:28:53.429Z,54.87
2018-02-18T13:31:20.869Z,57.60
2018-02-18T13:33:49.084Z,51.77
2018-02-18T13:36:16.640Z,51.67
2018-02-18T13:38:44.060Z,51.57
2018-02-18T13:41:12.277Z,61.00
2018-02-18T13:43:39.727Z,49.43
2018-02-18T13:46:07.155Z,57.63
2018-02-18T13:48:35.345Z,50.57
2018-02-18T13:51:02.824Z,55.87
2018-02-18T13:53:30.253Z,58.77
2018-02-18T13:55:57.737Z,55.87
2018-02-18T13:58:25.206Z,61.73
2018-02-18T14:00:52.632Z,52.47
2018-02-18T14:03:20.097Z,58.87
2018-02-18T14:05:47.564Z,52.67
2018-02-18T14:08:15.118Z,58.17
2018-02-18T14:10:42.554Z,49.60
2018-02-18T14:13:10.048Z,51.80
2018-02-18T14:15:37.480Z,45.50
2018-02-18T14:18:04.918Z,54.60
2018-02-18T14:20:33.157Z,49.63
2018-02-18T14:23:00.584Z,51.23
2018-02-18T14:25:28.017Z,50.70
2018-02-18T14:27:55.452Z,48.00
2018-02-18T14:30:23.690Z,47.50
2018-02-18T14:32:51.132Z,47.03
2018-02-18T14:35:18.574Z,47.93
2018-02-18T14:37:46.048Z,49.47
2018-02-18T14:40:13.481Z,49.53
2018-02-18T14:42:52.745Z,51.07
2018-02-18T14:45:32.373Z,45.47
2018-02-18T14:48:11.765Z,48.40
2018-02-18T14:50:51.952Z,50.87
2018-02-18T14:53:31.412Z,50.27
2018-02-18T14:56:08.444Z,48.07
2018-02-18T14:58:36.651Z,46.57
2018-02-18T15:01:04.124Z,49.07
2018-02-18T15:03:31.554Z,50.20
2018-02-18T15:05:59.045Z,50.63
2018-02-18T15:08:26.472Z,45.53
2018-02-18T15:10:53.900Z,50.60
2018-02-18T15:13:22.147Z,45.23
2018-02-18T15:15:49.685Z,50.70
2018-02-18T15:18:17.123Z,48.43
2018-02-18T15:20:44.596Z,45.27
2018-02-18T15:23:12.041Z,47.87
2018-02-18T15:25:39.583Z,47.37
2018-02-18T15:28:07.792Z,47.90
2018-02-18T15:30:35.232Z,52.63
2018-02-18T15:33:02.660Z,52.10
2018-02-18T15:35:30.880Z,49.10
2018-02-18T15:37:58.379Z,54.60
2018-02-18T15:40:25.800Z,48.20
2018-02-18T15:42:53.348Z,48.67
2018-02-18T15:45:20.822Z,52.67
2018-02-18T15:47:48.262Z,51.30
2018-02-18T15:50:15.740Z,53.93
2018-02-18T15:52:43.174Z,51.03
2018-02-18T15:55:10.637Z,56.40
2018-02-18T15:57:38.076Z,53.43
2018-02-18T16:00:05.504Z,53.73
2018-02-18T16:02:33.728Z,59.23
2018-02-18T16:05:01.181Z,53.47
2018-02-18T16:07:28.649Z,53.43
2018-02-18T16:09:56.094Z,55.13
2018-02-18T16:12:23.533Z,54.70
2018-02-18T16:14:51.006Z,53.17
2018-02-18T16:17:19.162Z,55.63
2018-02-18T16:19:46.652Z,54.93
2018-02-18T16:22:14.095Z,53.73
2018-02-18T16:24:41.540Z,57.47
2018-02-18T16:27:08.976Z,49.53
2018-02-18T16:29:37.173Z,56.20
2018-02-18T16:32:04.600Z,57.77
2018-02-18T16:34:32.817Z,55.87
2018-02-18T16:37:00.303Z,62.97
2018-02-18T16:39:27.684Z,60.07
2018-02-18T16:41:56.624Z,54.93
2018-02-18T16:44:24.057Z,70.03
2018-02-18T16:46:51.540Z,67.37
2018-02-18T16:49:18.985Z,57.23
2018-02-18T16:51:46.457Z,60.87
2018-02-18T16:54:13.893Z,61.17
2018-02-18T16:56:41.333Z,67.20
2018-02-18T16:59:09.549Z,62.17
2018-02-18T17:01:36.981Z,67.37
2018-02-18T17:04:04.431Z,61.60
2018-02-18T17:06:31.856Z,67.00
2018-02-18T17:09:00.050Z,68.53
2018-02-18T17:11:28.269Z,66.73
2018-02-18T17:13:55.747Z,67.97
2018-02-18T17:16:23.172Z,67.70
2018-02-18T17:18:50.636Z,64.47
2018-02-18T17:21:18.109Z,69.67
2018-02-18T17:23:45.524Z,68.67
2018-02-18T17:26:13.048Z,65.93
2018-02-18T17:28:40.480Z,58.97
2018-02-18T17:31:07.911Z,67.57
2018-02-18T17:33:35.409Z,73.97
2018-02-18T17:36:02.842Z,69.03
2018-02-18T17:38:30.299Z,80.87
2018-02-18T17:40:57.909Z,70.03
2018-02-18T17:43:26.103Z,70.83
2018-02-18T17:45:53.524Z,67.97
2018-02-18T17:48:21.049Z,64.27
2018-02-18T17:50:48.482Z,71.30
2018-02-18T17:53:15.910Z,64.47
2018-02-18T17:55:44.123Z,72.87
2018-02-18T17:58:11.547Z,73.60
2018-02-18T18:00:39.761Z,69.27
2018-02-18T18:03:07.211Z,74.67
2018-02-18T18:05:34.719Z,65.97
2018-02-18T18:08:02.141Z,67.30
2018-02-18T18:10:29.582Z,65.80
2018-02-18T18:12:57.012Z,69.23
2018-02-18T18:15:25.232Z,80.40
2018-02-18T18:17:52.695Z,62.97
2018-02-18T18:20:20.109Z,65.63
2018-02-18T18:22:47.598Z,73.20
2018-02-18T18:25:15.041Z,68.73
2018-02-18T18:27:42.469Z,77.57
2018-02-18T18:30:10.689Z,75.77
2018-02-18T18:32:38.244Z,75.60
2018-02-18T18:35:05.701Z,75.97
2018-02-18T18:37:33.132Z,64.53
2018-02-18T18:40:00.573Z,67.10
2018-02-18T18:42:28.786Z,68.40
2018-02-18T18:44:56.236Z,69.77
2018-02-18T18:47:23.960Z,59.57
2018-02-18T18:49:52.160Z,70.43
2018-02-18T18:52:19.581Z,65.30
2018-02-18T18:54:47.033Z,68.23
2018-02-18T18:57:14.461Z,61.60
2018-02-18T18:59:41.930Z,68.43
2018-02-18T19:02:09.388Z,66.40
2018-02-18T19:04:36.828Z,71.60
2018-02-18T19:07:04.273Z,61.37
2018-02-18T19:09:31.800Z,66.57
2018-02-18T19:12:00.031Z,70.60
2018-02-18T19:14:27.449Z,64.37
2018-02-18T19:16:54.932Z,81.77
2018-02-18T19:19:22.385Z,74.13
2018-02-18T19:21:49.812Z,69.97
2018-02-18T19:24:17.296Z,74.50
2018-02-18T19:26:44.725Z,77.73
2018-02-18T19:29:12.170Z,73.33
2018-02-18T19:31:39.599Z,63.47
2018-02-18T19:34:07.020Z,63.17
2018-02-18T19:36:34.464Z,70.27
2018-02-18T19:39:01.965Z,68.20
2018-02-18T19:41:29.347Z,69.23
2018-02-18T19:43:57.569Z,70.47
2018-02-18T19:46:25.030Z,62.30
2018-02-18T19:48:52.468Z,73.33
2018-02-18T19:51:19.961Z,71.07
2018-02-18T19:53:47.397Z,69.57
2018-02-18T19:56:14.877Z,65.70
2018-02-18T19:58:42.317Z,87.63
2018-02-18T20:01:09.773Z,74.10
2018-02-18T20:03:37.224Z,70.93
2018-02-18T20:06:04.684Z,78.00
2018-02-18T20:08:32.152Z,94.57
2018-02-18T20:10:59.602Z,77.10
2018-02-18T20:13:27.021Z,82.10
2018-02-18T20:15:55.224Z,83.83
2018-02-18T20:18:22.692Z,84.13
2018-02-18T20:20:50.138Z,77.03
2018-02-18T20:23:17.612Z,82.07
2018-02-18T20:25:45.058Z,84.83
2018-02-18T20:28:12.557Z,81.73
2018-02-18T20:30:40.087Z,91.17
2018-02-18T20:33:07.528Z,84.03
2018-02-18T20:35:35.009Z,68.57
2018-02-18T20:38:02.453Z,80.40
2018-02-18T20:40:29.879Z,69.07
2018-02-18T20:42:57.305Z,69.87
2018-02-18T20:45:24.749Z,74.37
2018-02-18T20:47:52.181Z,83.43
2018-02-18T20:50:19.622Z,80.10
2018-02-18T20:52:47.085Z,73.10
2018-02-18T20:55:14.641Z,78.57
2018-02-18T20:57:42.105Z,65.07
2018-02-18T21:00:09.549Z,75.53
2018-02-18T21:02:37.049Z,64.40
2018-02-18T21:05:05.249Z,66.37
2018-02-18T21:07:33.464Z,62.47
2018-02-18T21:10:00.929Z,61.97
2018-02-18T21:12:28.382Z,67.23
2018-02-18T21:14:55.792Z,67.70
2018-02-18T21:17:24.012Z,65.60
2018-02-18T21:19:51.512Z,66.07
2018-02-18T21:22:19.752Z,64.43
2018-02-18T21:24:47.179Z,64.93
2018-02-18T21:27:14.700Z,72.17
2018-02-18T21:29:42.141Z,71.33
2018-02-18T21:32:09.599Z,71.17
2018-02-18T21:34:37.028Z,72.97
2018-02-18T21:37:04.474Z,78.50
2018-02-18T21:39:31.952Z,106.60
2018-02-18T21:41:59.380Z,95.57
2018-02-18T21:44:26.897Z,90.80
2018-02-18T21:46:54.352Z,86.50
2018-02-18T21:49:21.913Z,77.07
2018-02-18T21:51:49.336Z,81.27
2018-02-18T21:54:16.788Z,85.43
2018-02-18T21:56:44.201Z,76.00
2018-02-18T21:59:12.415Z,78.67
2018-02-18T22:01:39.875Z,78.03
2018-02-18T22:04:07.345Z,68.80
2018-02-18T22:06:35.018Z,81.03
2018-02-18T22:09:02.463Z,95.47
2018-02-18T22:11:29.892Z,88.53
2018-02-18T22:13:58.104Z,93.47
2018-02-18T22:16:25.613Z,78.60
2018-02-18T22:18:53.814Z,87.30
2018-02-18T22:21:21.402Z,81.03
2018-02-18T22:23:48.864Z,81.07
2018-02-18T22:26:16.313Z,79.27
2018-02-18T22:28:43.791Z,78.97
2018-02-18T22:31:11.237Z,77.67
2018-02-18T22:33:38.666Z,71.33
2018-02-18T22:36:06.149Z,73.83
2018-02-18T22:38:33.589Z,78.30
2018-02-18T22:41:01.057Z,78.43
2018-02-18T22:43:28.520Z,70.13
2018-02-18T22:45:55.949Z,77.13
2018-02-18T22:48:23.378Z,70.17
2018-02-18T22:50:50.815Z,78.47
2018-02-18T22:53:18.320Z,78.53
2018-02-18T22:55:45.757Z,78.60
2018-02-18T22:58:13.980Z,83.10
2018-02-18T23:00:41.440Z,88.97
2018-02-18T23:03:08.885Z,83.17
2018-02-18T23:05:41.960Z,85.03
2018-02-18T23:08:09.445Z,81.37
2018-02-18T23:10:36.898Z,84.70
2018-02-18T23:13:04.332Z,76.80
2018-02-18T23:15:31.771Z,81.20
2018-02-18T23:17:59.967Z,77.60
2018-02-18T23:20:39.336Z,78.27
2018-02-18T23:23:06.770Z,75.40
2018-02-18T23:25:34.256Z,81.30
2018-02-18T23:28:01.677Z,77.33
2018-02-18T23:30:29.106Z,79.43
2018-02-18T23:32:57.349Z,67.23
2018-02-18T23:35:24.773Z,67.50
2018-02-18T23:37:52.222Z,78.00
2018-02-18T23:40:19.692Z,84.47
2018-02-18T23:42:47.134Z,71.83
2018-02-18T23:45:14.616Z,81.17
2018-02-18T23:47:42.068Z,74.10
2018-02-18T23:50:09.504Z,77.67
2018-02-18T23:52:36.949Z,72.33
2018-02-18T23:55:05.147Z,86.70
2018-02-18T23:57:32.608Z,88.00
